Time;durP1;ratioP1;P1;durP2;ratioP2;P2;SDS_P1;SDS_P2;PMS_P1;PMS_P2;Temp;Humidity;BMP_temperature;BMP_pressure;BME280_temperature;BME280_humidity;BME280_pressure;Samples;Min_cycle;Max_cycle;Signal;HPM_P1;HPM_P2
2021/05/06 00:07:23;;;;;;;9.60;5.53;;;;;;;;;;4993428;28;20426;-64
2021/05/06 00:32:12;;;;;;;12.43;4.20;;;;;;;;;;5013272;28;21037;-64
2021/05/06 00:34:39;;;;;;;10.27;5.73;;;;;;;;;;5013344;28;20461;-63
2021/05/06 00:37:06;;;;;;;10.83;5.00;;;;;;;;;;5012760;28;20592;-64
2021/05/06 00:39:36;;;;;;;12.27;4.83;;;;;;;;;;5012564;28;20917;-63
2021/05/06 00:42:21;;;;;;;12.03;5.40;;;;;;;;;;5012984;28;20464;-66
2021/05/06 00:56:19;;;;;;;10.17;5.53;;;;;;;;;;5012347;28;20457;-63
2021/05/06 00:59:11;;;;;;;9.30;4.37;;;;;;;;;;5012621;28;20589;-64
2021/05/06 01:01:45;;;;;;;11.40;5.37;;;;;;;;;;5013016;28;20488;-64
2021/05/06 01:07:14;;;;;;;8.37;4.40;;;;;;;;;;5006514;28;20469;-63
2021/05/06 01:09:44;;;;;;;10.87;5.17;;;;;;;;;;5012586;28;20529;-63
2021/05/06 01:12:12;;;;;;;11.00;5.20;;;;;;;;;;5012185;28;20485;-63
2021/05/06 01:14:38;;;;;;;5.83;4.30;;;;;;;;;;5012568;28;20454;-63
2021/05/06 01:17:05;;;;;;;10.03;4.50;;;;;;;;;;5012199;28;20500;-63
2021/05/06 01:19:32;;;;;;;6.60;4.00;;;;;;;;;;5012104;28;20893;-64
2021/05/06 01:21:59;;;;;;;9.60;4.80;;;;;;;;;;5012124;28;20456;-64
2021/05/06 01:24:26;;;;;;;17.83;5.93;;;;;;;;;;5012181;28;20944;-64
2021/05/06 01:26:59;;;;;;;10.83;5.03;;;;;;;;;;5011888;28;20938;-64
2021/05/06 01:29:29;;;;;;;7.57;5.17;;;;;;;;;;5011609;28;20992;-64
2021/05/06 01:32:05;;;;;;;10.93;4.60;;;;;;;;;;5011937;28;20480;-66
2021/05/06 01:34:32;;;;;;;11.20;5.30;;;;;;;;;;5011903;28;20536;-63
2021/05/06 01:37:04;;;;;;;6.80;5.40;;;;;;;;;;5011631;28;20507;-64
2021/05/06 01:39:46;;;;;;;11.50;5.30;;;;;;;;;;5012047;28;20477;-63
2021/05/06 01:42:15;;;;;;;7.00;4.80;;;;;;;;;;5012085;28;20465;-64
2021/05/06 01:45:04;;;;;;;9.80;4.63;;;;;;;;;;5011842;28;20477;-63
2021/05/06 01:47:33;;;;;;;16.50;5.83;;;;;;;;;;5011896;28;20455;-64
2021/05/06 01:58:30;;;;;;;7.83;5.00;;;;;;;;;;5011814;28;20822;-63
2021/05/06 02:01:00;;;;;;;9.10;4.87;;;;;;;;;;5043171;22;20582;-63
2021/05/06 02:03:27;;;;;;;12.07;5.40;;;;;;;;;;5034155;28;20449;-64
2021/05/06 02:05:53;;;;;;;15.33;5.63;;;;;;;;;;5026810;28;20814;-62
2021/05/06 02:08:21;;;;;;;8.57;4.47;;;;;;;;;;5031564;28;20444;-62
2021/05/06 02:10:48;;;;;;;10.07;4.93;;;;;;;;;;5030956;28;20475;-63
2021/05/06 02:13:16;;;;;;;9.07;4.37;;;;;;;;;;5031380;28;20850;-63
2021/05/06 02:15:46;;;;;;;9.30;4.77;;;;;;;;;;5031029;28;20464;-62
2021/05/06 02:18:15;;;;;;;5.87;4.57;;;;;;;;;;5031328;28;20551;-62
2021/05/06 02:20:41;;;;;;;9.40;4.60;;;;;;;;;;5031393;28;20472;-63
2021/05/06 02:23:08;;;;;;;8.13;4.83;;;;;;;;;;5033209;28;20444;-62
2021/05/06 02:25:36;;;;;;;10.23;4.97;;;;;;;;;;5035362;28;20452;-63
2021/05/06 02:28:02;;;;;;;9.87;5.00;;;;;;;;;;5034976;28;21008;-63
2021/05/06 02:30:29;;;;;;;7.60;4.43;;;;;;;;;;5035060;28;20476;-62
2021/05/06 02:32:56;;;;;;;9.60;4.93;;;;;;;;;;5035510;28;20480;-62
2021/05/06 02:35:22;;;;;;;11.60;4.83;;;;;;;;;;5034903;28;20978;-63
2021/05/06 02:37:49;;;;;;;6.80;4.33;;;;;;;;;;5034989;28;20454;-62
2021/05/06 02:40:16;;;;;;;11.83;5.03;;;;;;;;;;5034991;28;20480;-63
2021/05/06 02:42:43;;;;;;;8.67;4.70;;;;;;;;;;5034903;28;20490;-62
2021/05/06 02:45:11;;;;;;;11.60;4.93;;;;;;;;;;5035017;28;20448;-63
2021/05/06 02:47:37;;;;;;;9.63;4.70;;;;;;;;;;5034792;28;20453;-62
2021/05/06 02:50:08;;;;;;;11.07;5.80;;;;;;;;;;5035001;28;20464;-62
2021/05/06 02:52:36;;;;;;;11.50;4.43;;;;;;;;;;5034782;28;20491;-63
2021/05/06 02:55:08;;;;;;;11.40;4.90;;;;;;;;;;5035108;28;20453;-63
2021/05/06 02:57:39;;;;;;;9.63;5.00;;;;;;;;;;5034852;28;20436;-62
2021/05/06 03:02:53;;;;;;;8.97;4.93;;;;;;;;;;5034860;28;20450;-63
2021/05/06 03:05:22;;;;;;;14.97;5.17;;;;;;;;;;5034329;28;20488;-63
2021/05/06 03:07:55;;;;;;;8.27;4.70;;;;;;;;;;5034442;28;20452;-64
2021/05/06 03:10:32;;;;;;;13.50;4.73;;;;;;;;;;5034511;28;20483;-64
2021/05/06 03:24:13;;;;;;;7.13;4.03;;;;;;;;;;5034203;28;20816;-64
2021/05/06 03:26:39;;;;;;;7.43;4.20;;;;;;;;;;5033628;28;20449;-64
2021/05/06 03:29:10;;;;;;;10.63;4.30;;;;;;;;;;5034187;28;21043;-64
2021/05/06 03:31:56;;;;;;;12.50;5.23;;;;;;;;;;5033879;28;20488;-64
2021/05/06 03:34:43;;;;;;;13.03;4.40;;;;;;;;;;5033353;28;20437;-63
2021/05/06 03:42:43;;;;;;;7.93;4.20;;;;;;;;;;5034345;28;20508;-65
2021/05/06 03:45:22;;;;;;;5.87;4.40;;;;;;;;;;5033671;28;20460;-64
2021/05/06 04:15:44;;;;;;;9.33;5.27;;;;;;;;;;5033122;28;20425;-64
2021/05/06 04:18:14;;;;;;;6.20;5.60;;;;;;;;;;5033593;28;20828;-64
2021/05/06 04:26:32;;;;;;;7.27;5.10;;;;;;;;;;5035293;28;20997;-63
2021/05/06 04:37:18;;;;;;;9.53;5.30;;;;;;;;;;5032170;28;20459;-62
2021/05/06 04:39:52;;;;;;;12.30;5.57;;;;;;;;;;5032973;28;20465;-62
2021/05/06 04:53:34;;;;;;;8.07;5.10;;;;;;;;;;5032775;28;20476;-62
2021/05/06 04:56:07;;;;;;;7.60;5.53;;;;;;;;;;5031789;28;21013;-62
2021/05/06 04:59:09;;;;;;;6.77;4.87;;;;;;;;;;5033032;28;20445;-63
2021/05/06 05:04:37;;;;;;;7.50;4.90;;;;;;;;;;4990834;28;20427;-62
2021/05/06 05:07:12;;;;;;;8.67;4.70;;;;;;;;;;4989483;28;20459;-62
2021/05/06 05:12:31;;;;;;;8.27;4.33;;;;;;;;;;5023093;28;20476;-62
2021/05/06 05:17:54;;;;;;;8.50;5.03;;;;;;;;;;5029192;28;20433;-62
2021/05/06 05:20:23;;;;;;;9.77;5.13;;;;;;;;;;5032163;28;20530;-64
2021/05/06 05:25:37;;;;;;;11.00;4.30;;;;;;;;;;5031401;28;20810;-63
2021/05/06 05:28:04;;;;;;;6.00;4.63;;;;;;;;;;5032409;28;20455;-64
2021/05/06 05:30:32;;;;;;;8.03;4.10;;;;;;;;;;5031947;28;20522;-64
2021/05/06 05:32:59;;;;;;;7.80;4.63;;;;;;;;;;5032209;28;20487;-63
2021/05/06 05:35:35;;;;;;;7.13;4.40;;;;;;;;;;5031315;28;20449;-63
2021/05/06 05:38:08;;;;;;;8.80;5.23;;;;;;;;;;5032054;28;21061;-63
2021/05/06 05:40:40;;;;;;;7.73;4.23;;;;;;;;;;5031796;28;20504;-63
2021/05/06 05:43:16;;;;;;;9.23;4.67;;;;;;;;;;5032119;28;20444;-63
2021/05/06 05:46:27;;;;;;;7.77;4.47;;;;;;;;;;5031729;28;20459;-63
2021/05/06 05:54:36;;;;;;;4.10;3.70;;;;;;;;;;5014953;28;20440;-63
2021/05/06 05:57:08;;;;;;;6.17;3.70;;;;;;;;;;5031861;28;20456;-63
2021/05/06 05:59:35;;;;;;;6.10;3.20;;;;;;;;;;5030812;28;20473;-63
2021/05/06 06:02:01;;;;;;;7.80;4.40;;;;;;;;;;5031812;28;20483;-63
2021/05/06 06:04:28;;;;;;;7.37;4.53;;;;;;;;;;5031522;28;20456;-63
2021/05/06 06:06:54;;;;;;;6.50;4.03;;;;;;;;;;5031356;28;20455;-62
2021/05/06 06:09:21;;;;;;;12.93;3.63;;;;;;;;;;5031133;28;20456;-63
2021/05/06 06:11:48;;;;;;;6.40;3.83;;;;;;;;;;5031934;28;20849;-63
2021/05/06 06:14:20;;;;;;;5.37;3.20;;;;;;;;;;5031617;28;20694;-63
2021/05/06 06:16:47;;;;;;;8.30;4.00;;;;;;;;;;5031948;28;20440;-64
2021/05/06 06:19:15;;;;;;;6.77;3.67;;;;;;;;;;5031622;28;20457;-63
2021/05/06 06:21:45;;;;;;;7.10;3.87;;;;;;;;;;5032843;28;20445;-63
2021/05/06 06:24:12;;;;;;;5.80;2.07;;;;;;;;;;5032016;28;20449;-63
2021/05/06 06:26:38;;;;;;;3.73;2.10;;;;;;;;;;5032358;28;20445;-61
2021/05/06 06:29:07;;;;;;;5.30;2.10;;;;;;;;;;5032815;28;20448;-61
2021/05/06 06:31:38;;;;;;;5.33;2.30;;;;;;;;;;5034061;28;20503;-61
2021/05/06 06:34:05;;;;;;;5.30;2.37;;;;;;;;;;5034154;28;20452;-61
2021/05/06 06:36:32;;;;;;;4.97;2.10;;;;;;;;;;5034534;28;20463;-61
2021/05/06 06:38:58;;;;;;;6.00;2.00;;;;;;;;;;5032126;28;20463;-61
2021/05/06 06:41:25;;;;;;;5.30;2.07;;;;;;;;;;5031601;28;21013;-63
2021/05/06 06:43:53;;;;;;;6.27;2.70;;;;;;;;;;5031371;28;20453;-62
2021/05/06 06:46:20;;;;;;;3.37;1.90;;;;;;;;;;5031322;28;20453;-61
2021/05/06 06:48:47;;;;;;;5.07;2.43;;;;;;;;;;5031241;28;20840;-60
2021/05/06 06:51:15;;;;;;;5.30;2.03;;;;;;;;;;5031898;28;20495;-61
2021/05/06 06:53:42;;;;;;;7.10;2.40;;;;;;;;;;5031057;28;20519;-62
2021/05/06 06:56:08;;;;;;;5.07;2.20;;;;;;;;;;5030984;28;20463;-62
2021/05/06 06:58:35;;;;;;;5.13;2.00;;;;;;;;;;5028506;28;20456;-64
2021/05/06 07:01:02;;;;;;;4.40;1.73;;;;;;;;;;5028860;28;20488;-61
2021/05/06 07:03:28;;;;;;;5.27;2.00;;;;;;;;;;5030863;28;20970;-62
2021/05/06 07:05:56;;;;;;;6.50;2.27;;;;;;;;;;5031171;28;20460;-63
2021/05/06 07:08:25;;;;;;;3.83;2.03;;;;;;;;;;5031279;28;20495;-63
2021/05/06 07:10:53;;;;;;;4.13;1.93;;;;;;;;;;5034273;28;20521;-62
2021/05/06 07:13:20;;;;;;;4.27;2.27;;;;;;;;;;5034083;28;20482;-63
2021/05/06 07:15:47;;;;;;;5.37;1.90;;;;;;;;;;5034094;28;20475;-63
2021/05/06 07:18:14;;;;;;;3.57;1.70;;;;;;;;;;5034759;28;20449;-61
2021/05/06 07:20:42;;;;;;;4.03;2.17;;;;;;;;;;5033747;28;20484;-62
2021/05/06 07:23:10;;;;;;;6.73;2.33;;;;;;;;;;5034900;28;20445;-63
2021/05/06 07:25:37;;;;;;;5.60;2.23;;;;;;;;;;5034137;28;20467;-62
2021/05/06 07:28:10;;;;;;;6.10;2.47;;;;;;;;;;5034008;28;20440;-62
2021/05/06 07:30:37;;;;;;;7.03;2.17;;;;;;;;;;5034073;28;20473;-61
2021/05/06 07:33:03;;;;;;;5.17;2.17;;;;;;;;;;5034408;28;20484;-62
2021/05/06 07:35:32;;;;;;;6.20;2.57;;;;;;;;;;5033239;28;20445;-62
2021/05/06 07:37:58;;;;;;;6.50;1.97;;;;;;;;;;5033937;28;20498;-62
2021/05/06 07:40:26;;;;;;;4.40;2.27;;;;;;;;;;5033583;28;21072;-62
2021/05/06 07:42:53;;;;;;;3.40;1.87;;;;;;;;;;5033750;28;20445;-61
2021/05/06 07:45:19;;;;;;;4.90;2.47;;;;;;;;;;5034059;28;20452;-61
2021/05/06 07:47:46;;;;;;;3.27;2.20;;;;;;;;;;5033925;28;20952;-62
2021/05/06 07:50:15;;;;;;;8.53;3.03;;;;;;;;;;5033171;28;20500;-61
2021/05/06 07:52:42;;;;;;;3.40;1.73;;;;;;;;;;5033983;28;20481;-62
2021/05/06 07:55:10;;;;;;;5.47;2.30;;;;;;;;;;5033106;28;20544;-59
2021/05/06 07:57:37;;;;;;;4.27;2.00;;;;;;;;;;5033437;28;20456;-62
2021/05/06 08:00:05;;;;;;;5.27;2.20;;;;;;;;;;5032343;28;20563;-62
2021/05/06 08:02:32;;;;;;;5.50;2.60;;;;;;;;;;5033590;28;20448;-60
2021/05/06 08:04:58;;;;;;;7.43;3.23;;;;;;;;;;5033622;28;20452;-61
2021/05/06 08:07:25;;;;;;;11.47;3.67;;;;;;;;;;5033292;28;20448;-65
2021/05/06 08:09:52;;;;;;;6.07;3.07;;;;;;;;;;5032820;28;20473;-62
2021/05/06 08:12:19;;;;;;;8.43;3.90;;;;;;;;;;5033040;28;20499;-63
2021/05/06 08:14:47;;;;;;;6.93;2.83;;;;;;;;;;5026204;28;20454;-63
2021/05/06 08:17:14;;;;;;;6.93;3.50;;;;;;;;;;5019289;28;21014;-62
2021/05/06 08:19:41;;;;;;;3.97;2.53;;;;;;;;;;5032760;28;20526;-61
2021/05/06 08:22:07;;;;;;;7.90;3.20;;;;;;;;;;5033078;28;20852;-61
2021/05/06 08:24:34;;;;;;;4.63;3.13;;;;;;;;;;5032924;28;20459;-62
2021/05/06 08:27:01;;;;;;;8.63;3.20;;;;;;;;;;5032860;28;20893;-61
2021/05/06 08:29:27;;;;;;;5.27;3.03;;;;;;;;;;5032977;28;20456;-61
2021/05/06 08:31:55;;;;;;;5.23;3.00;;;;;;;;;;5032976;28;20480;-62
2021/05/06 08:34:22;;;;;;;5.33;2.47;;;;;;;;;;5032278;28;20766;-61
2021/05/06 08:36:48;;;;;;;6.70;2.93;;;;;;;;;;5032221;28;20449;-62
2021/05/06 08:39:15;;;;;;;6.40;2.63;;;;;;;;;;5031597;28;20453;-61
2021/05/06 08:41:42;;;;;;;7.23;2.30;;;;;;;;;;5033343;28;20440;-62
2021/05/06 08:44:12;;;;;;;6.97;2.40;;;;;;;;;;5033192;28;20455;-62
2021/05/06 08:46:45;;;;;;;6.30;2.30;;;;;;;;;;5033916;28;20452;-59
2021/05/06 08:49:13;;;;;;;3.63;1.70;;;;;;;;;;5034917;28;21018;-64
2021/05/06 08:51:40;;;;;;;4.40;2.23;;;;;;;;;;5040239;28;20474;-60
2021/05/06 08:54:06;;;;;;;3.70;1.90;;;;;;;;;;5028142;28;20515;-62
2021/05/06 08:56:33;;;;;;;3.00;1.40;;;;;;;;;;5017564;28;20442;-60
2021/05/06 08:59:00;;;;;;;5.00;2.67;;;;;;;;;;5032611;28;20453;-60
2021/05/06 09:01:26;;;;;;;4.03;2.37;;;;;;;;;;5032182;28;20484;-60
2021/05/06 09:03:53;;;;;;;5.53;2.30;;;;;;;;;;5032747;28;20447;-64
2021/05/06 09:06:21;;;;;;;6.80;2.50;;;;;;;;;;5032043;28;20487;-60
2021/05/06 09:08:49;;;;;;;5.83;2.37;;;;;;;;;;5032258;28;20449;-60
2021/05/06 09:11:16;;;;;;;3.20;2.37;;;;;;;;;;5032178;28;20504;-62
2021/05/06 09:13:43;;;;;;;5.67;2.57;;;;;;;;;;5032611;28;21000;-62
2021/05/06 09:16:10;;;;;;;3.30;2.10;;;;;;;;;;5031677;28;20539;-63
2021/05/06 09:18:37;;;;;;;1.80;1.30;;;;;;;;;;5032298;28;20445;-63
2021/05/06 09:21:05;;;;;;;2.93;1.50;;;;;;;;;;5031599;28;20479;-60
2021/05/06 09:23:32;;;;;;;5.57;2.33;;;;;;;;;;5032520;28;20448;-63
2021/05/06 09:26:01;;;;;;;4.53;2.23;;;;;;;;;;5031363;28;20445;-63
2021/05/06 09:28:29;;;;;;;3.57;2.33;;;;;;;;;;5031423;28;20480;-64
2021/05/06 09:30:57;;;;;;;7.03;2.70;;;;;;;;;;5031608;28;20476;-64
2021/05/06 09:33:28;;;;;;;3.80;2.70;;;;;;;;;;5028844;28;20477;-63
2021/05/06 09:35:55;;;;;;;5.80;2.57;;;;;;;;;;5012277;28;20445;-64
2021/05/06 09:38:29;;;;;;;3.93;2.40;;;;;;;;;;5012249;28;20478;-63
2021/05/06 09:41:00;;;;;;;5.23;2.50;;;;;;;;;;5022850;28;20464;-63
2021/05/06 09:43:29;;;;;;;5.13;2.67;;;;;;;;;;5032102;28;20449;-64
2021/05/06 09:45:56;;;;;;;4.57;2.33;;;;;;;;;;5031733;28;20461;-63
2021/05/06 09:48:23;;;;;;;4.47;2.40;;;;;;;;;;5031452;28;20448;-64
2021/05/06 09:50:51;;;;;;;4.77;2.43;;;;;;;;;;5031174;28;20525;-63
2021/05/06 09:53:20;;;;;;;3.70;2.80;;;;;;;;;;5031622;28;21023;-63
2021/05/06 09:55:47;;;;;;;5.50;2.53;;;;;;;;;;5031384;28;20459;-63
2021/05/06 09:58:16;;;;;;;4.50;2.43;;;;;;;;;;5021283;28;20471;-62
2021/05/06 10:00:43;;;;;;;7.80;2.80;;;;;;;;;;5029906;28;20541;-63
2021/05/06 10:03:10;;;;;;;6.90;3.07;;;;;;;;;;5031206;28;20964;-65
2021/05/06 10:05:38;;;;;;;5.23;2.60;;;;;;;;;;5031702;28;20448;-64
2021/05/06 10:08:05;;;;;;;5.17;3.00;;;;;;;;;;5030746;28;20857;-63
2021/05/06 10:10:31;;;;;;;5.93;3.10;;;;;;;;;;5031179;28;20468;-63
2021/05/06 10:12:58;;;;;;;4.80;2.90;;;;;;;;;;5031077;28;20556;-62
2021/05/06 10:15:26;;;;;;;4.33;2.43;;;;;;;;;;5030932;28;20452;-63
2021/05/06 10:17:53;;;;;;;5.30;2.30;;;;;;;;;;5031775;28;20444;-62
2021/05/06 10:20:23;;;;;;;3.70;2.80;;;;;;;;;;5031009;28;20473;-63
2021/05/06 10:22:50;;;;;;;5.03;3.63;;;;;;;;;;5030544;28;20489;-63
2021/05/06 10:25:17;;;;;;;3.87;2.60;;;;;;;;;;5030431;28;20518;-63
2021/05/06 10:27:44;;;;;;;3.43;2.50;;;;;;;;;;5031105;28;20448;-66
2021/05/06 10:30:11;;;;;;;3.53;2.33;;;;;;;;;;5030702;28;21043;-63
2021/05/06 10:32:39;;;;;;;2.30;2.10;;;;;;;;;;5031021;28;20483;-63
2021/05/06 10:35:07;;;;;;;2.33;2.13;;;;;;;;;;5031631;28;20459;-63
2021/05/06 10:37:34;;;;;;;2.10;1.90;;;;;;;;;;5030083;28;20455;-63
2021/05/06 10:40:01;;;;;;;4.90;2.27;;;;;;;;;;5020082;28;21080;-63
2021/05/06 10:42:32;;;;;;;4.57;2.17;;;;;;;;;;5030265;28;20453;-63
2021/05/06 10:44:59;;;;;;;4.43;1.80;;;;;;;;;;5033754;28;20452;-63
2021/05/06 10:47:46;;;;;;;3.53;2.20;;;;;;;;;;5029639;28;20515;-63
2021/05/06 10:50:14;;;;;;;3.97;2.07;;;;;;;;;;5034556;28;20473;-62
2021/05/06 10:52:42;;;;;;;4.80;2.03;;;;;;;;;;5034818;28;20484;-63
2021/05/06 10:55:10;;;;;;;3.10;1.90;;;;;;;;;;5034580;28;20445;-61
2021/05/06 10:57:37;;;;;;;3.83;2.20;;;;;;;;;;5034696;28;20451;-63
2021/05/06 11:00:04;;;;;;;3.57;2.30;;;;;;;;;;5034282;28;20488;-62
2021/05/06 11:02:51;;;;;;;7.47;1.80;;;;;;;;;;5034225;28;20451;-63
2021/05/06 11:05:20;;;;;;;2.33;1.50;;;;;;;;;;5033515;28;20494;-63
2021/05/06 11:08:05;;;;;;;3.33;1.70;;;;;;;;;;5034273;28;20531;-64
2021/05/06 11:10:32;;;;;;;3.43;2.20;;;;;;;;;;5033288;28;20476;-62
2021/05/06 11:12:59;;;;;;;4.30;2.20;;;;;;;;;;5034133;28;21003;-63
2021/05/06 11:15:27;;;;;;;5.33;2.23;;;;;;;;;;5034057;28;20448;-61
2021/05/06 11:17:54;;;;;;;4.23;2.43;;;;;;;;;;5034767;28;20766;-63
2021/05/06 11:20:55;;;;;;;5.10;2.53;;;;;;;;;;5022375;28;20480;-63
2021/05/06 11:23:37;;;;;;;7.40;2.40;;;;;;;;;;5034689;28;20464;-62
2021/05/06 11:26:09;;;;;;;3.40;2.07;;;;;;;;;;5034028;28;20448;-63
2021/05/06 11:28:40;;;;;;;2.40;2.20;;;;;;;;;;5034543;28;20444;-63
2021/05/06 11:31:06;;;;;;;3.50;2.53;;;;;;;;;;5033044;28;20475;-62
2021/05/06 11:33:33;;;;;;;3.43;2.30;;;;;;;;;;5033841;28;20484;-63
2021/05/06 11:36:02;;;;;;;3.17;2.33;;;;;;;;;;5033709;28;20456;-63
2021/05/06 11:38:43;;;;;;;2.90;1.70;;;;;;;;;;5034074;28;20467;-63
2021/05/06 11:41:11;;;;;;;2.73;2.00;;;;;;;;;;5034414;28;20516;-63
2021/05/06 11:43:40;;;;;;;2.10;1.80;;;;;;;;;;5033444;28;20823;-63
2021/05/06 11:46:07;;;;;;;2.13;1.80;;;;;;;;;;5034480;28;20867;-62
2021/05/06 11:48:34;;;;;;;3.83;2.03;;;;;;;;;;5033921;28;20452;-62
2021/05/06 11:51:01;;;;;;;2.70;1.77;;;;;;;;;;5033319;28;20472;-62
2021/05/06 11:53:27;;;;;;;2.03;1.80;;;;;;;;;;5029970;28;20976;-63
2021/05/06 11:55:54;;;;;;;3.20;1.80;;;;;;;;;;5013702;28;20457;-63
2021/05/06 11:58:28;;;;;;;4.17;2.50;;;;;;;;;;5024733;28;20944;-62
2021/05/06 12:00:56;;;;;;;4.03;1.93;;;;;;;;;;5028084;28;20491;-62
2021/05/06 12:03:37;;;;;;;3.20;1.90;;;;;;;;;;5033057;28;20524;-62
2021/05/06 12:06:04;;;;;;;3.27;2.00;;;;;;;;;;5031991;28;20443;-61
2021/05/06 12:08:32;;;;;;;3.10;2.03;;;;;;;;;;5025177;28;20453;-63
2021/05/06 12:11:01;;;;;;;3.43;1.70;;;;;;;;;;5032101;28;20476;-63
2021/05/06 12:13:29;;;;;;;2.77;2.10;;;;;;;;;;5032766;28;21053;-61
2021/05/06 12:16:10;;;;;;;2.80;1.53;;;;;;;;;;5031447;28;20460;-62
2021/05/06 12:18:36;;;;;;;4.13;2.00;;;;;;;;;;5013615;28;20472;-62
2021/05/06 12:21:05;;;;;;;2.57;1.70;;;;;;;;;;5031772;28;20468;-62
2021/05/06 12:23:32;;;;;;;3.03;2.03;;;;;;;;;;5033284;28;20453;-61
2021/05/06 12:25:58;;;;;;;4.10;2.20;;;;;;;;;;5032139;28;20700;-62
2021/05/06 12:28:25;;;;;;;4.33;2.60;;;;;;;;;;5033099;28;20515;-61
2021/05/06 12:30:59;;;;;;;5.27;2.87;;;;;;;;;;5027571;28;20483;-66
2021/05/06 12:33:29;;;;;;;5.90;3.23;;;;;;;;;;5038497;28;20507;-62
2021/05/06 12:35:56;;;;;;;3.90;2.93;;;;;;;;;;5032820;28;20457;-64
2021/05/06 12:38:23;;;;;;;5.53;3.43;;;;;;;;;;5033203;28;20449;-64
2021/05/06 12:40:49;;;;;;;4.13;2.40;;;;;;;;;;5032256;28;20471;-64
2021/05/06 12:43:23;;;;;;;3.63;2.10;;;;;;;;;;5033526;28;20452;-64
2021/05/06 12:45:58;;;;;;;3.83;2.30;;;;;;;;;;5033038;28;20897;-63
2021/05/06 12:48:35;;;;;;;3.40;2.10;;;;;;;;;;5033125;28;20429;-62
2021/05/06 12:51:02;;;;;;;2.50;1.77;;;;;;;;;;5030061;28;20481;-63
2021/05/06 12:53:29;;;;;;;4.67;2.13;;;;;;;;;;5013232;28;20485;-63
2021/05/06 12:55:56;;;;;;;3.57;2.20;;;;;;;;;;5012797;28;20475;-63
2021/05/06 12:58:27;;;;;;;3.40;2.40;;;;;;;;;;5013079;28;20590;-63
2021/05/06 13:01:04;;;;;;;4.10;2.30;;;;;;;;;;5012164;28;21054;-64
2021/05/06 13:03:31;;;;;;;3.87;2.47;;;;;;;;;;5012714;28;20453;-63
2021/05/06 13:06:04;;;;;;;4.23;2.50;;;;;;;;;;5012687;28;20458;-62
2021/05/06 13:08:37;;;;;;;4.73;2.50;;;;;;;;;;5013412;28;20438;-63
2021/05/06 13:11:05;;;;;;;7.73;2.97;;;;;;;;;;5012531;28;20515;-63
2021/05/06 13:13:42;;;;;;;3.70;2.33;;;;;;;;;;5012847;28;20488;-63
2021/05/06 13:16:10;;;;;;;4.37;1.97;;;;;;;;;;5025605;28;20445;-62
2021/05/06 13:18:36;;;;;;;2.87;1.80;;;;;;;;;;5025618;28;20448;-62
2021/05/06 13:21:04;;;;;;;3.10;1.87;;;;;;;;;;5025704;28;20478;-62
2021/05/06 13:23:31;;;;;;;2.90;1.93;;;;;;;;;;5017406;28;20452;-63
2021/05/06 13:26:00;;;;;;;2.47;1.73;;;;;;;;;;5029844;28;20461;-62
2021/05/06 13:28:45;;;;;;;2.90;1.80;;;;;;;;;;5031712;28;20453;-62
2021/05/06 13:31:16;;;;;;;3.80;2.17;;;;;;;;;;5031720;28;20928;-62
2021/05/06 13:33:43;;;;;;;4.43;2.00;;;;;;;;;;5030784;28;20601;-63
2021/05/06 13:36:11;;;;;;;3.07;1.87;;;;;;;;;;5023191;28;20536;-63
2021/05/06 13:38:54;;;;;;;3.60;1.80;;;;;;;;;;5027375;28;20452;-62
2021/05/06 13:41:22;;;;;;;4.70;3.40;;;;;;;;;;5031759;28;20468;-63
2021/05/06 13:43:49;;;;;;;4.83;3.10;;;;;;;;;;5031694;28;20445;-63
2021/05/06 13:46:17;;;;;;;4.70;2.80;;;;;;;;;;5031611;28;20452;-63
2021/05/06 13:48:43;;;;;;;4.83;3.30;;;;;;;;;;5031796;28;20484;-63
2021/05/06 13:51:11;;;;;;;5.60;1.97;;;;;;;;;;5031082;28;20476;-63
2021/05/06 13:53:38;;;;;;;3.60;1.80;;;;;;;;;;5031289;28;20943;-63
2021/05/06 13:56:05;;;;;;;3.77;1.80;;;;;;;;;;5031505;28;20459;-64
2021/05/06 13:58:32;;;;;;;2.27;1.70;;;;;;;;;;5031514;28;20456;-63
2021/05/06 14:00:59;;;;;;;3.30;2.17;;;;;;;;;;5030979;28;20553;-63
2021/05/06 14:03:26;;;;;;;3.37;2.00;;;;;;;;;;5053497;22;20549;-65
2021/05/06 14:05:53;;;;;;;4.70;2.10;;;;;;;;;;5039560;28;20507;-65
2021/05/06 14:08:20;;;;;;;3.30;1.90;;;;;;;;;;5039344;28;20534;-65
2021/05/06 14:10:46;;;;;;;3.60;2.17;;;;;;;;;;5051395;28;20458;-65
2021/05/06 14:13:14;;;;;;;4.53;2.77;;;;;;;;;;5033246;28;20575;-64
2021/05/06 14:15:41;;;;;;;3.70;2.43;;;;;;;;;;5031513;28;20452;-65
2021/05/06 14:18:08;;;;;;;4.50;2.13;;;;;;;;;;5032727;28;20460;-63
2021/05/06 14:20:35;;;;;;;4.37;2.17;;;;;;;;;;5035574;28;20523;-65
2021/05/06 14:23:02;;;;;;;3.53;2.50;;;;;;;;;;5033699;28;20472;-64
2021/05/06 14:25:28;;;;;;;2.30;1.80;;;;;;;;;;5034972;28;20571;-65
2021/05/06 14:27:55;;;;;;;4.83;2.07;;;;;;;;;;5035221;28;20488;-65
2021/05/06 14:30:22;;;;;;;4.20;2.30;;;;;;;;;;5035227;28;20527;-64
2021/05/06 14:32:49;;;;;;;3.87;2.50;;;;;;;;;;5034590;28;20492;-65
2021/05/06 14:35:22;;;;;;;2.70;2.33;;;;;;;;;;5034572;28;20474;-66
2021/05/06 14:40:33;;;;;;;4.03;2.33;;;;;;;;;;5013683;28;20449;-64
2021/05/06 14:43:02;;;;;;;2.43;2.10;;;;;;;;;;5015168;28;20465;-65
2021/05/06 14:45:45;;;;;;;5.83;2.80;;;;;;;;;;5030467;28;20820;-65
2021/05/06 14:48:32;;;;;;;4.60;2.73;;;;;;;;;;5035002;28;20527;-65
2021/05/06 14:53:54;;;;;;;2.33;1.90;;;;;;;;;;5027577;28;20619;-65
2021/05/06 14:56:37;;;;;;;4.13;2.53;;;;;;;;;;5019263;28;20461;-65
2021/05/06 14:59:07;;;;;;;6.40;2.80;;;;;;;;;;5034318;28;20452;-65
2021/05/06 15:01:44;;;;;;;3.03;2.10;;;;;;;;;;5034764;28;20502;-65
2021/05/06 15:04:11;;;;;;;4.67;2.40;;;;;;;;;;5034335;28;20480;-65
2021/05/06 15:06:40;;;;;;;4.50;2.93;;;;;;;;;;5034161;28;20453;-64
2021/05/06 15:09:12;;;;;;;2.90;2.30;;;;;;;;;;5034071;28;20939;-65
2021/05/06 15:11:44;;;;;;;3.93;2.20;;;;;;;;;;5034438;28;20951;-64
2021/05/06 15:14:13;;;;;;;4.27;2.57;;;;;;;;;;5034525;28;20487;-65
2021/05/06 15:16:42;;;;;;;4.77;2.33;;;;;;;;;;5034192;28;20429;-65
2021/05/06 15:19:27;;;;;;;3.70;2.30;;;;;;;;;;5033803;28;20448;-64
2021/05/06 15:25:00;;;;;;;4.40;2.27;;;;;;;;;;5029968;28;20937;-65
2021/05/06 15:27:27;;;;;;;3.77;2.27;;;;;;;;;;5033819;28;20959;-65
2021/05/06 15:29:57;;;;;;;3.80;2.13;;;;;;;;;;5033350;28;20449;-65
2021/05/06 15:32:24;;;;;;;3.90;2.17;;;;;;;;;;5014805;28;20465;-65
2021/05/06 15:34:53;;;;;;;4.73;2.47;;;;;;;;;;5029321;28;20514;-65
2021/05/06 15:37:20;;;;;;;4.40;2.20;;;;;;;;;;5034121;28;20459;-64
2021/05/06 15:39:47;;;;;;;6.57;2.43;;;;;;;;;;5032917;28;20547;-64
2021/05/06 15:42:31;;;;;;;4.10;2.27;;;;;;;;;;5034837;28;20514;-65
2021/05/06 15:45:11;;;;;;;5.30;1.90;;;;;;;;;;5035293;28;20863;-64
2021/05/06 15:47:41;;;;;;;5.00;2.23;;;;;;;;;;5034656;28;20904;-64
2021/05/06 15:50:22;;;;;;;3.03;2.23;;;;;;;;;;5033843;28;20970;-65
2021/05/06 15:52:53;;;;;;;3.30;2.20;;;;;;;;;;5033400;28;21000;-65
2021/05/06 15:55:26;;;;;;;3.37;2.27;;;;;;;;;;5032781;28;20460;-65
2021/05/06 15:57:56;;;;;;;4.13;2.10;;;;;;;;;;5017345;28;20841;-64
2021/05/06 16:00:31;;;;;;;4.00;2.20;;;;;;;;;;5033542;28;20893;-64
2021/05/06 16:03:11;;;;;;;5.30;3.10;;;;;;;;;;5025243;28;20477;-65
2021/05/06 16:05:42;;;;;;;3.77;2.47;;;;;;;;;;5032948;28;20829;-64
2021/05/06 16:08:17;;;;;;;3.27;2.10;;;;;;;;;;5032358;28;20503;-64
2021/05/06 16:10:50;;;;;;;4.10;2.23;;;;;;;;;;5015381;28;20429;-64
2021/05/06 16:13:19;;;;;;;3.63;2.20;;;;;;;;;;5029987;28;20514;-64
2021/05/06 16:15:48;;;;;;;5.67;2.67;;;;;;;;;;5033177;28;20433;-65
2021/05/06 16:18:14;;;;;;;3.40;2.30;;;;;;;;;;5014685;28;20446;-65
2021/05/06 16:20:41;;;;;;;3.73;2.20;;;;;;;;;;5033608;28;20527;-64
2021/05/06 16:23:09;;;;;;;4.60;2.60;;;;;;;;;;5033915;28;20469;-65
2021/05/06 16:25:36;;;;;;;3.47;2.53;;;;;;;;;;5032720;28;20448;-63
2021/05/06 16:28:03;;;;;;;4.60;2.63;;;;;;;;;;5032870;28;20456;-67
2021/05/06 16:30:31;;;;;;;3.70;2.20;;;;;;;;;;5032902;28;20924;-64
2021/05/06 16:32:59;;;;;;;3.00;2.30;;;;;;;;;;5033306;28;20571;-65
2021/05/06 16:35:29;;;;;;;4.50;2.30;;;;;;;;;;5032850;28;20530;-65
2021/05/06 16:37:58;;;;;;;5.90;2.53;;;;;;;;;;5030080;28;20828;-64
2021/05/06 16:40:33;;;;;;;5.70;2.47;;;;;;;;;;5032665;28;20452;-65
2021/05/06 16:43:31;;;;;;;2.73;2.30;;;;;;;;;;5031523;28;20525;-65
2021/05/06 16:45:58;;;;;;;4.27;2.50;;;;;;;;;;5031728;28;20975;-65
2021/05/06 16:48:25;;;;;;;3.60;2.63;;;;;;;;;;5032756;28;20456;-65
2021/05/06 16:50:51;;;;;;;3.03;2.40;;;;;;;;;;5030685;28;20456;-65
2021/05/06 16:53:18;;;;;;;4.23;2.40;;;;;;;;;;5023728;28;20903;-65
2021/05/06 16:55:46;;;;;;;3.13;2.60;;;;;;;;;;5030724;28;20526;-64
2021/05/06 16:58:12;;;;;;;5.07;2.60;;;;;;;;;;5033061;28;20449;-64
2021/05/06 17:00:40;;;;;;;4.80;3.00;;;;;;;;;;5040737;28;20800;-64
2021/05/06 17:03:07;;;;;;;3.73;2.37;;;;;;;;;;5030609;28;20460;-65
2021/05/06 17:05:34;;;;;;;3.60;2.57;;;;;;;;;;5032419;28;20444;-64
2021/05/06 17:08:01;;;;;;;4.37;2.80;;;;;;;;;;5032136;28;20472;-64
2021/05/06 17:10:28;;;;;;;4.23;3.07;;;;;;;;;;5032381;28;20559;-64
2021/05/06 17:12:56;;;;;;;3.53;2.90;;;;;;;;;;5032254;28;20516;-64
2021/05/06 17:15:23;;;;;;;6.07;3.63;;;;;;;;;;5019471;28;20445;-64
2021/05/06 17:17:49;;;;;;;2.37;2.00;;;;;;;;;;5031739;28;20483;-64
2021/05/06 17:20:17;;;;;;;3.33;2.17;;;;;;;;;;5021324;28;20506;-64
2021/05/06 17:22:45;;;;;;;3.13;2.20;;;;;;;;;;5023210;28;20469;-64
2021/05/06 17:25:13;;;;;;;3.60;2.63;;;;;;;;;;5031631;28;20451;-65